Time;durP1;ratioP1;P1;durP2;ratioP2;P2;SDS_P1;SDS_P2;PMS_P1;PMS_P2;Temp;Humidity;BMP_temperature;BMP_pressure;BME280_temperature;BME280_humidity;BME280_pressure;Samples;Min_cycle;Max_cycle;Signal;HPM_P1;HPM_P2
2023/03/29 00:01:12;;;;;;;4.40;1.50;;;6.90;99.90;;;;;;5006209;28;20112;-80
2023/03/29 00:03:39;;;;;;;2.58;1.50;;;6.90;99.90;;;;;;5006094;28;20105;-79
2023/03/29 00:06:05;;;;;;;3.80;1.63;;;6.90;99.90;;;;;;4985322;28;20133;-81
2023/03/29 00:08:36;;;;;;;2.42;1.58;;;6.90;99.90;;;;;;5005143;28;20022;-80
2023/03/29 00:11:02;;;;;;;2.33;1.10;;;6.80;99.90;;;;;;5007847;28;20042;-81
2023/03/29 00:13:29;;;;;;;4.43;1.67;;;6.80;99.90;;;;;;4997975;28;20026;-81
2023/03/29 00:15:55;;;;;;;3.15;1.63;;;6.80;99.90;;;;;;5003742;28;20053;-80
2023/03/29 00:18:22;;;;;;;3.70;1.25;;;6.80;99.90;;;;;;5011483;28;20185;-81
2023/03/29 00:20:55;;;;;;;4.90;1.35;;;6.70;99.90;;;;;;5002703;28;20033;-81
2023/03/29 00:23:21;;;;;;;6.32;1.67;;;6.70;99.90;;;;;;5014609;28;20658;-81
2023/03/29 00:25:47;;;;;;;2.75;1.60;;;6.70;99.90;;;;;;5034713;28;20025;-80
2023/03/29 00:28:13;;;;;;;6.40;1.55;;;6.70;99.90;;;;;;5017728;28;20018;-81
2023/03/29 00:30:40;;;;;;;3.25;1.33;;;6.70;99.90;;;;;;5023808;28;20041;-80
2023/03/29 00:33:06;;;;;;;3.63;1.83;;;6.60;99.90;;;;;;5032473;28;20129;-80
2023/03/29 00:35:32;;;;;;;2.65;1.60;;;6.60;99.90;;;;;;5032223;28;20019;-79
2023/03/29 00:37:58;;;;;;;5.07;2.28;;;6.60;99.90;;;;;;5042354;28;20134;-81
2023/03/29 00:40:24;;;;;;;2.60;1.85;;;6.60;99.90;;;;;;5035261;28;20041;-81
2023/03/29 00:42:50;;;;;;;4.50;1.85;;;6.60;99.90;;;;;;5029006;28;20034;-80
2023/03/29 00:45:19;;;;;;;3.22;1.80;;;6.60;99.90;;;;;;5032297;28;20025;-80
2023/03/29 00:47:49;;;;;;;5.38;1.80;;;6.60;99.90;;;;;;5034020;28;20044;-80
2023/03/29 00:50:38;;;;;;;6.40;2.03;;;6.60;99.90;;;;;;5029618;28;20068;-81
2023/03/29 00:53:16;;;;;;;2.67;1.65;;;6.60;99.90;;;;;;5030765;28;20057;-81
2023/03/29 00:55:52;;;;;;;3.72;1.80;;;6.60;99.90;;;;;;5027933;28;20018;-81
2023/03/29 00:58:23;;;;;;;6.30;2.08;;;6.60;99.90;;;;;;5032292;28;20212;-80
2023/03/29 01:00:56;;;;;;;6.50;1.85;;;6.60;99.90;;;;;;5026482;28;20034;-81
2023/03/29 01:03:29;;;;;;;4.00;1.83;;;6.60;99.90;;;;;;5030567;28;20025;-79
2023/03/29 01:06:00;;;;;;;3.13;2.00;;;6.70;99.90;;;;;;5028030;28;20089;-80
2023/03/29 01:08:31;;;;;;;3.67;1.88;;;6.70;99.90;;;;;;5044403;28;20024;-80
2023/03/29 01:11:07;;;;;;;3.03;1.60;;;6.70;99.90;;;;;;5016307;28;20026;-80
2023/03/29 01:13:46;;;;;;;3.17;1.98;;;6.70;99.90;;;;;;5025966;28;20134;-79
2023/03/29 01:16:14;;;;;;;3.72;1.77;;;6.70;99.90;;;;;;5007846;28;20018;-80
2023/03/29 01:18:40;;;;;;;6.70;2.15;;;6.70;99.90;;;;;;5006255;28;20046;-80
2023/03/29 01:21:31;;;;;;;4.28;2.28;;;6.70;99.90;;;;;;5002131;28;20034;-79
2023/03/29 01:24:44;;;;;;;6.65;2.30;;;6.70;99.90;;;;;;4985194;28;20068;-79
2023/03/29 01:27:48;;;;;;;3.67;2.30;;;6.70;99.90;;;;;;4996279;28;20035;-80
2023/03/29 01:30:25;;;;;;;4.63;1.85;;;6.70;99.90;;;;;;5004464;28;20095;-79
2023/03/29 01:32:58;;;;;;;4.63;2.13;;;6.70;99.90;;;;;;5002411;28;20045;-79
2023/03/29 01:35:39;;;;;;;5.82;2.38;;;6.70;99.90;;;;;;5001781;28;21757;-79
2023/03/29 01:38:44;;;;;;;5.35;2.28;;;6.70;99.90;;;;;;5005302;28;20022;-80
2023/03/29 01:41:11;;;;;;;5.28;1.83;;;6.70;99.90;;;;;;4997577;28;20042;-80
2023/03/29 01:43:55;;;;;;;4.45;2.42;;;6.70;99.90;;;;;;5006527;28;20401;-80
2023/03/29 01:47:10;;;;;;;3.67;2.25;;;6.80;99.90;;;;;;5019307;28;20022;-80
2023/03/29 01:50:11;;;;;;;4.65;2.50;;;6.80;99.90;;;;;;4925161;29;20019;-80
2023/03/29 01:53:02;;;;;;;4.22;2.45;;;6.80;99.90;;;;;;4909826;29;20043;-80
2023/03/29 01:55:33;;;;;;;4.60;2.70;;;6.80;99.90;;;;;;5001980;28;20038;-80
2023/03/29 01:58:01;;;;;;;9.23;3.55;;;6.80;99.90;;;;;;5005848;28;20105;-80
2023/03/29 02:00:28;;;;;;;3.47;2.20;;;6.80;99.90;;;;;;5005817;28;20029;-79
2023/03/29 02:02:59;;;;;;;3.95;2.40;;;6.80;99.90;;;;;;5003382;28;20481;-79
2023/03/29 02:05:27;;;;;;;3.95;2.40;;;6.80;99.90;;;;;;5004704;28;20033;-79
2023/03/29 02:07:54;;;;;;;3.95;2.22;;;6.80;99.90;;;;;;5018094;28;20041;-79
2023/03/29 02:10:22;;;;;;;4.60;2.70;;;6.90;99.90;;;;;;5007030;28;20056;-79
2023/03/29 02:12:49;;;;;;;3.58;2.20;;;6.90;99.90;;;;;;5002558;28;20060;-79
2023/03/29 02:15:18;;;;;;;3.63;1.98;;;6.80;99.90;;;;;;5006873;28;20137;-80
2023/03/29 02:17:45;;;;;;;4.13;2.40;;;6.80;99.90;;;;;;5003731;28;20064;-79
2023/03/29 02:20:35;;;;;;;7.28;3.05;;;6.80;99.90;;;;;;4999294;28;20061;-79
2023/03/29 02:23:05;;;;;;;5.78;2.30;;;6.90;99.90;;;;;;5005470;28;20026;-79
2023/03/29 02:25:31;;;;;;;4.50;2.40;;;6.90;99.90;;;;;;5003548;28;20081;-79
2023/03/29 02:27:58;;;;;;;3.17;1.90;;;6.90;99.90;;;;;;5003693;28;20557;-80
2023/03/29 02:30:29;;;;;;;6.95;2.97;;;6.80;99.90;;;;;;5007430;28;20053;-79
2023/03/29 02:33:08;;;;;;;3.85;2.08;;;6.90;99.90;;;;;;5004785;28;20077;-79
2023/03/29 02:35:40;;;;;;;3.08;2.00;;;6.90;99.90;;;;;;5006026;28;20030;-80
2023/03/29 02:38:10;;;;;;;4.35;2.40;;;6.90;99.90;;;;;;5004089;28;20018;-80
2023/03/29 02:40:37;;;;;;;3.90;2.22;;;7.00;99.90;;;;;;5006592;28;20033;-79
2023/03/29 02:43:06;;;;;;;4.72;1.73;;;7.00;99.90;;;;;;5004330;28;20084;-80
2023/03/29 02:45:33;;;;;;;4.13;1.48;;;7.00;99.90;;;;;;5007907;28;20486;-81
2023/03/29 02:48:05;;;;;;;3.83;1.73;;;7.00;99.90;;;;;;5005981;28;20052;-80
2023/03/29 02:50:36;;;;;;;2.63;1.60;;;7.00;99.90;;;;;;4998357;28;20022;-80
2023/03/29 02:53:08;;;;;;;4.50;2.15;;;7.00;99.90;;;;;;5002389;28;20030;-79
2023/03/29 02:55:34;;;;;;;3.10;1.63;;;7.10;99.90;;;;;;5008893;28;20034;-79
2023/03/29 02:58:07;;;;;;;3.45;1.25;;;7.10;99.90;;;;;;5007143;28;20121;-80
2023/03/29 03:00:38;;;;;;;2.38;1.30;;;7.10;99.90;;;;;;5007484;28;20053;-79
2023/03/29 03:03:07;;;;;;;4.28;1.60;;;7.10;99.90;;;;;;5018879;28;20034;-79
2023/03/29 03:05:33;;;;;;;2.20;1.27;;;7.10;99.90;;;;;;5005492;28;20405;-80
2023/03/29 03:07:59;;;;;;;3.78;1.40;;;7.10;99.90;;;;;;5005971;28;20528;-79
2023/03/29 03:10:25;;;;;;;4.78;1.70;;;7.20;99.90;;;;;;5008564;28;20050;-79
2023/03/29 03:12:51;;;;;;;4.68;1.70;;;7.20;99.90;;;;;;5005575;28;20486;-79
2023/03/29 03:15:17;;;;;;;3.25;1.42;;;7.20;99.90;;;;;;5008801;28;20081;-79
2023/03/29 03:17:43;;;;;;;4.00;1.50;;;7.20;99.90;;;;;;5006881;28;20068;-80
2023/03/29 03:20:13;;;;;;;3.60;1.65;;;7.20;99.90;;;;;;5001568;28;20025;-79
2023/03/29 03:22:40;;;;;;;3.35;1.65;;;7.20;99.90;;;;;;5003984;28;20026;-80
2023/03/29 03:25:09;;;;;;;4.75;1.70;;;7.20;99.90;;;;;;5006935;28;20045;-79
2023/03/29 03:27:35;;;;;;;3.58;1.75;;;7.20;99.90;;;;;;5008525;28;20025;-80
2023/03/29 03:30:04;;;;;;;2.85;1.83;;;7.20;99.90;;;;;;5006366;28;20066;-80
2023/03/29 03:32:31;;;;;;;2.75;1.50;;;7.20;99.90;;;;;;5006204;28;20030;-80
2023/03/29 03:34:57;;;;;;;5.15;1.63;;;7.20;99.90;;;;;;5006781;28;20454;-79
2023/03/29 03:37:23;;;;;;;5.90;1.67;;;7.20;99.90;;;;;;5002736;28;20045;-80
2023/03/29 03:39:49;;;;;;;4.30;1.50;;;7.20;99.90;;;;;;5005801;28;20025;-79
2023/03/29 03:42:15;;;;;;;3.35;1.55;;;7.20;99.90;;;;;;5006268;28;20079;-79
2023/03/29 03:44:41;;;;;;;2.40;1.30;;;7.20;99.90;;;;;;5008098;28;20030;-80
2023/03/29 03:47:06;;;;;;;3.55;1.10;;;7.20;99.90;;;;;;5006638;28;20031;-79
2023/03/29 03:49:32;;;;;;;5.85;1.38;;;7.20;99.90;;;;;;5010656;28;20082;-78
2023/03/29 03:51:58;;;;;;;3.65;1.60;;;7.30;99.90;;;;;;5004951;28;20061;-79
2023/03/29 03:54:24;;;;;;;2.60;1.67;;;7.30;99.90;;;;;;4999207;23;20047;-77
2023/03/29 03:56:49;;;;;;;1.80;1.10;;;7.30;99.90;;;;;;4984458;28;20023;-77
2023/03/29 03:59:15;;;;;;;3.40;1.58;;;7.30;99.90;;;;;;4989406;28;20025;-77
2023/03/29 04:01:42;;;;;;;3.63;1.40;;;7.40;99.90;;;;;;4991019;28;20100;-76
2023/03/29 04:04:09;;;;;;;2.80;1.25;;;7.30;99.90;;;;;;5003612;28;20091;-77
2023/03/29 04:06:36;;;;;;;2.63;1.55;;;7.40;99.90;;;;;;5011992;28;20113;-76
2023/03/29 04:09:03;;;;;;;3.42;1.25;;;7.40;99.90;;;;;;5007957;28;20025;-76
2023/03/29 04:11:28;;;;;;;2.88;1.52;;;7.30;99.90;;;;;;5012289;28;20061;-77
2023/03/29 04:13:54;;;;;;;2.78;1.20;;;7.40;99.90;;;;;;5010544;28;20486;-76
2023/03/29 04:16:20;;;;;;;5.20;1.13;;;7.40;99.90;;;;;;5007827;28;20030;-77
2023/03/29 04:18:46;;;;;;;8.10;1.13;;;7.40;99.90;;;;;;5024428;28;20434;-77
2023/03/29 04:21:11;;;;;;;4.00;1.50;;;7.40;99.90;;;;;;5010769;28;20061;-77
2023/03/29 04:23:37;;;;;;;3.38;1.30;;;7.40;99.90;;;;;;5007239;28;20367;-76
2023/03/29 04:26:03;;;;;;;2.30;1.02;;;7.50;99.90;;;;;;5008505;28;20541;-77
2023/03/29 04:28:29;;;;;;;2.25;0.98;;;7.50;99.90;;;;;;5006603;28;20022;-77
2023/03/29 04:30:55;;;;;;;2.85;1.20;;;7.50;99.90;;;;;;5006587;28;20033;-77
2023/03/29 04:33:20;;;;;;;3.30;1.20;;;7.50;99.90;;;;;;5005013;28;20061;-76
2023/03/29 04:35:46;;;;;;;3.30;1.00;;;7.50;99.90;;;;;;5004865;28;20040;-76
2023/03/29 04:38:12;;;;;;;3.42;1.27;;;7.60;99.90;;;;;;5013174;28;20450;-76
2023/03/29 04:40:38;;;;;;;4.60;1.42;;;7.60;99.90;;;;;;5009443;28;20026;-76
2023/03/29 04:43:03;;;;;;;3.45;1.35;;;7.60;99.90;;;;;;5006693;28;20449;-76
2023/03/29 04:45:30;;;;;;;2.92;1.30;;;7.50;99.90;;;;;;5011341;28;20436;-76
2023/03/29 04:47:58;;;;;;;3.88;1.92;;;7.60;99.90;;;;;;5009192;28;20050;-77
2023/03/29 04:50:24;;;;;;;5.93;1.30;;;7.50;99.90;;;;;;5006760;28;20030;-76
2023/03/29 04:52:50;;;;;;;4.80;1.50;;;7.60;99.90;;;;;;5008159;28;20026;-76
2023/03/29 04:55:15;;;;;;;2.70;1.30;;;7.60;99.90;;;;;;5007596;28;20030;-77
2023/03/29 04:57:43;;;;;;;4.18;1.77;;;7.50;99.90;;;;;;5006803;28;20037;-77
2023/03/29 05:00:14;;;;;;;3.53;1.10;;;7.60;99.90;;;;;;5004628;28;20026;-76
2023/03/29 05:02:41;;;;;;;4.57;1.60;;;7.60;99.90;;;;;;5008887;28;20025;-77
2023/03/29 05:05:08;;;;;;;3.13;1.55;;;7.60;99.90;;;;;;5010189;28;20037;-77
2023/03/29 05:07:34;;;;;;;8.05;3.35;;;7.60;99.90;;;;;;5007818;28;20049;-76
2023/03/29 05:10:00;;;;;;;3.10;1.40;;;7.60;99.90;;;;;;5006316;28;20049;-77
2023/03/29 05:12:25;;;;;;;9.90;2.55;;;7.60;99.90;;;;;;5006193;28;20110;-77
2023/03/29 05:14:51;;;;;;;4.57;1.45;;;7.60;99.90;;;;;;5009230;28;20405;-77
2023/03/29 05:17:17;;;;;;;2.40;1.55;;;7.50;99.90;;;;;;5007357;28;20034;-77
2023/03/29 05:19:43;;;;;;;5.50;1.40;;;7.60;99.90;;;;;;5007785;28;20076;-77
2023/03/29 05:22:08;;;;;;;2.20;1.40;;;7.60;99.90;;;;;;5008281;28;20367;-76
2023/03/29 05:24:34;;;;;;;3.25;1.23;;;7.60;99.90;;;;;;5006835;28;20439;-77
2023/03/29 05:27:01;;;;;;;3.50;1.63;;;7.60;99.90;;;;;;5005210;28;20030;-77
2023/03/29 05:29:26;;;;;;;2.50;1.63;;;7.60;99.90;;;;;;5003676;28;20040;-77
2023/03/29 05:31:52;;;;;;;4.90;1.77;;;7.60;99.90;;;;;;5008575;28;21304;-76
2023/03/29 05:34:18;;;;;;;4.53;1.52;;;7.60;99.90;;;;;;5006903;28;20038;-78
2023/03/29 05:36:45;;;;;;;6.35;1.45;;;7.70;99.90;;;;;;5008826;28;20045;-78
2023/03/29 05:39:10;;;;;;;3.40;1.75;;;7.70;99.90;;;;;;5013810;28;20030;-77
2023/03/29 05:41:36;;;;;;;6.60;2.10;;;7.70;99.90;;;;;;5002999;28;20030;-78
2023/03/29 05:44:02;;;;;;;5.18;1.45;;;7.70;99.90;;;;;;5005841;28;20501;-78
2023/03/29 05:46:28;;;;;;;6.63;1.70;;;7.70;99.90;;;;;;5003697;28;20102;-80
2023/03/29 05:48:53;;;;;;;5.85;1.88;;;7.80;99.90;;;;;;5004164;28;20037;-81
2023/03/29 05:51:23;;;;;;;5.22;1.77;;;7.80;99.90;;;;;;5008045;28;20037;-83
2023/03/29 05:53:49;;;;;;;7.97;1.65;;;7.80;99.90;;;;;;5008148;28;20528;-81
2023/03/29 05:56:15;;;;;;;5.68;1.60;;;7.80;99.90;;;;;;4992246;28;20034;-80
2023/03/29 05:58:41;;;;;;;6.35;1.63;;;7.90;99.90;;;;;;5005529;28;20033;-81
2023/03/29 06:01:12;;;;;;;6.70;2.00;;;7.90;99.90;;;;;;5001998;28;20474;-79
2023/03/29 06:03:37;;;;;;;9.20;2.28;;;8.00;99.90;;;;;;5007999;28;20030;-80
2023/03/29 06:06:03;;;;;;;7.25;2.72;;;8.00;99.90;;;;;;5006072;28;20048;-80
2023/03/29 06:08:30;;;;;;;6.40;2.03;;;8.00;99.90;;;;;;5005787;28;20024;-80
2023/03/29 06:10:59;;;;;;;4.15;1.63;;;8.00;99.90;;;;;;5009891;28;20137;-80
2023/03/29 06:13:25;;;;;;;6.53;1.50;;;8.10;99.90;;;;;;5005695;28;20398;-80
2023/03/29 06:15:50;;;;;;;2.92;1.50;;;8.10;99.90;;;;;;5000709;28;20026;-80
2023/03/29 06:18:16;;;;;;;9.73;1.80;;;8.20;99.90;;;;;;5005400;28;20026;-81
2023/03/29 06:20:42;;;;;;;4.38;1.20;;;8.30;99.90;;;;;;5004978;28;20136;-80
2023/03/29 06:23:07;;;;;;;3.58;1.00;;;8.30;99.90;;;;;;5002699;28;20100;-85
2023/03/29 06:25:34;;;;;;;5.00;0.90;;;8.40;99.90;;;;;;5023146;28;20027;-80
2023/03/29 06:28:00;;;;;;;3.67;0.80;;;8.50;99.90;;;;;;5005940;28;20071;-81
2023/03/29 06:30:25;;;;;;;1.83;0.80;;;8.50;99.90;;;;;;5003626;28;20207;-81
2023/03/29 06:32:51;;;;;;;7.43;0.98;;;8.60;99.90;;;;;;5011353;28;20022;-81
2023/03/29 06:35:18;;;;;;;1.73;0.75;;;8.60;99.90;;;;;;5011845;28;20174;-81
2023/03/29 06:37:48;;;;;;;1.00;0.73;;;8.70;99.90;;;;;;5013614;28;20056;-78
2023/03/29 06:40:19;;;;;;;4.82;1.08;;;8.80;99.90;;;;;;5012234;28;20030;-79
2023/03/29 06:42:46;;;;;;;3.33;1.08;;;8.80;99.90;;;;;;5025120;28;20038;-81
2023/03/29 06:45:12;;;;;;;1.17;0.88;;;8.90;99.90;;;;;;5012161;28;20022;-81
2023/03/29 06:47:38;;;;;;;5.18;0.90;;;8.90;99.90;;;;;;5010883;28;20195;-78
2023/03/29 06:50:05;;;;;;;2.15;1.00;;;8.90;99.90;;;;;;5013756;28;20026;-77
2023/03/29 06:52:30;;;;;;;3.63;0.90;;;9.00;99.90;;;;;;5016427;28;20052;-78
2023/03/29 06:54:56;;;;;;;3.33;1.20;;;9.00;99.90;;;;;;5013091;28;20046;-77
2023/03/29 06:57:22;;;;;;;3.25;0.95;;;9.00;99.90;;;;;;5018370;28;20032;-77
2023/03/29 06:59:48;;;;;;;1.27;0.60;;;9.10;99.90;;;;;;5010553;28;20053;-77
2023/03/29 07:02:14;;;;;;;2.80;1.00;;;9.10;99.90;;;;;;5017781;28;20034;-77
2023/03/29 07:04:41;;;;;;;1.65;0.70;;;9.20;99.90;;;;;;5012107;28;20018;-77
2023/03/29 07:07:11;;;;;;;2.35;0.73;;;9.20;99.90;;;;;;5007634;28;20105;-77
2023/03/29 07:09:38;;;;;;;2.78;1.23;;;9.30;99.90;;;;;;5013904;28;20033;-78
2023/03/29 07:12:05;;;;;;;1.90;0.95;;;9.30;99.90;;;;;;5004326;28;20034;-79
2023/03/29 07:14:31;;;;;;;3.20;1.60;;;9.30;99.90;;;;;;5012828;28;20040;-79
2023/03/29 07:16:57;;;;;;;3.63;1.45;;;9.40;99.90;;;;;;5012748;28;20041;-80
2023/03/29 07:19:26;;;;;;;3.17;1.02;;;9.40;99.90;;;;;;5015088;28;20025;-80
2023/03/29 07:21:53;;;;;;;4.32;1.23;;;9.50;99.90;;;;;;5011067;28;20072;-79
2023/03/29 07:24:19;;;;;;;2.13;1.17;;;9.50;99.90;;;;;;5014480;28;20030;-79
2023/03/29 07:26:47;;;;;;;4.03;1.40;;;9.60;99.90;;;;;;5013313;28;20022;-80
2023/03/29 07:29:12;;;;;;;3.83;1.40;;;9.60;99.90;;;;;;5010476;28;20521;-81
2023/03/29 07:31:39;;;;;;;3.78;1.33;;;9.70;99.90;;;;;;5008213;28;20057;-81
2023/03/29 07:34:09;;;;;;;3.60;1.23;;;9.80;99.90;;;;;;5007003;28;20030;-81
2023/03/29 07:36:37;;;;;;;5.18;1.70;;;9.80;99.90;;;;;;5004725;28;20038;-81
2023/03/29 07:39:04;;;;;;;4.20;1.80;;;9.90;99.90;;;;;;5003298;28;20085;-82
2023/03/29 07:41:29;;;;;;;5.22;1.42;;;10.00;99.90;;;;;;5006499;28;20391;-81
2023/03/29 07:43:55;;;;;;;12.45;1.63;;;10.00;99.90;;;;;;5011385;28;20096;-78
2023/03/29 07:46:22;;;;;;;3.65;1.50;;;10.10;99.90;;;;;;5011865;28;20055;-80
2023/03/29 07:48:47;;;;;;;3.08;1.48;;;10.10;99.90;;;;;;5003215;28;20037;-80
2023/03/29 07:51:14;;;;;;;6.18;1.77;;;10.20;99.90;;;;;;5001528;28;20112;-79
2023/03/29 07:53:39;;;;;;;2.65;1.50;;;10.20;99.90;;;;;;5007846;28;20038;-80
2023/03/29 07:56:05;;;;;;;3.38;1.73;;;10.30;99.90;;;;;;5007409;28;20076;-80
2023/03/29 07:58:31;;;;;;;6.13;1.25;;;10.30;99.90;;;;;;5008383;28;20141;-79
2023/03/29 08:01:02;;;;;;;2.30;1.15;;;10.30;99.90;;;;;;5006526;28;20093;-80
2023/03/29 08:03:28;;;;;;;2.78;1.10;;;10.40;99.70;;;;;;5009102;28;20525;-80
2023/03/29 08:05:53;;;;;;;5.47;1.27;;;10.40;99.30;;;;;;5001088;28;20085;-81
2023/03/29 08:08:19;;;;;;;4.15;1.13;;;10.50;99.70;;;;;;5022193;28;20137;-81
2023/03/29 08:10:45;;;;;;;5.85;1.27;;;10.50;99.60;;;;;;5007073;28;20107;-80
2023/03/29 08:13:12;;;;;;;6.40;1.80;;;10.50;99.30;;;;;;5004920;28;20025;-80
2023/03/29 08:15:38;;;;;;;4.85;1.40;;;10.50;99.20;;;;;;5022906;28;20580;-80
2023/03/29 08:18:06;;;;;;;2.92;1.42;;;10.50;99.00;;;;;;5027009;28;20133;-80
2023/03/29 08:20:31;;;;;;;4.25;1.30;;;10.50;99.30;;;;;;5020897;28;20050;-80
2023/03/29 08:22:57;;;;;;;2.83;1.30;;;10.60;99.90;;;;;;5026924;28;20025;-80
2023/03/29 08:25:23;;;;;;;3.17;1.10;;;10.60;99.30;;;;;;5014551;28;20510;-80
2023/03/29 08:27:49;;;;;;;2.53;1.00;;;10.70;98.90;;;;;;5004930;28;20022;-80
2023/03/29 08:30:14;;;;;;;2.95;1.38;;;10.70;98.60;;;;;;5004955;28;20037;-79
2023/03/29 08:32:40;;;;;;;3.78;1.02;;;10.70;98.40;;;;;;5005434;28;20402;-80
2023/03/29 08:35:08;;;;;;;1.75;0.80;;;10.70;98.40;;;;;;4999046;28;20076;-80
2023/03/29 08:37:35;;;;;;;5.80;1.10;;;10.70;97.90;;;;;;5001039;28;20064;-81
2023/03/29 08:40:01;;;;;;;1.83;1.00;;;10.70;97.70;;;;;;5001279;28;20376;-80
2023/03/29 08:42:36;;;;;;;3.42;1.10;;;10.70;97.70;;;;;;5002806;28;20036;-80
2023/03/29 08:45:20;;;;;;;4.03;0.80;;;10.70;97.60;;;;;;5006979;28;20014;-78
2023/03/29 08:47:46;;;;;;;;;;;10.70;97.80;;;;;;5003169;28;20026;-78
2023/03/29 08:50:12;;;;;;;5.30;1.80;;;10.70;98.90;;;;;;5006389;28;20008;-78
2023/03/29 08:53:01;;;;;;;3.38;1.40;;;10.70;98.60;;;;;;5003379;28;20108;-83
2023/03/29 08:55:34;;;;;;;4.57;1.50;;;10.80;98.70;;;;;;5006483;28;20036;-83
2023/03/29 08:58:06;;;;;;;3.40;1.35;;;10.80;98.40;;;;;;5004557;28;20102;-82
2023/03/29 09:00:50;;;;;;;3.28;1.15;;;10.80;98.10;;;;;;5008099;28;20032;-83
2023/03/29 09:03:22;;;;;;;3.25;1.27;;;10.90;98.20;;;;;;5008626;28;20473;-80
2023/03/29 09:05:57;;;;;;;4.60;1.48;;;10.90;98.80;;;;;;5011263;28;20097;-82
2023/03/29 09:08:24;;;;;;;3.80;1.67;;;11.00;98.80;;;;;;5011802;28;20517;-78
2023/03/29 09:11:22;;;;;;;3.97;1.50;;;11.00;98.80;;;;;;5010407;28;20034;-79
2023/03/29 09:14:24;;;;;;;3.75;1.50;;;11.00;99.00;;;;;;5027910;28;20032;-79
2023/03/29 09:17:14;;;;;;;3.33;1.55;;;11.10;99.10;;;;;;5016970;28;20038;-78
2023/03/29 09:20:05;;;;;;;2.50;1.48;;;11.10;99.00;;;;;;5016448;28;20022;-77
2023/03/29 09:22:48;;;;;;;4.78;1.52;;;11.20;98.60;;;;;;5020822;28;20013;-78
2023/03/29 09:25:52;;;;;;;7.03;2.08;;;11.20;98.50;;;;;;5022006;28;20030;-78
2023/03/29 09:28:40;;;;;;;3.60;1.33;;;11.30;98.30;;;;;;5028534;28;20022;-79
2023/03/29 09:31:17;;;;;;;2.95;1.30;;;11.30;98.50;;;;;;5009811;28;20033;-78
2023/03/29 09:33:57;;;;;;;6.57;1.27;;;11.50;98.60;;;;;;5016265;28;20064;-78
2023/03/29 09:36:30;;;;;;;4.60;1.33;;;11.50;98.30;;;;;;5015207;28;20034;-82
2023/03/29 09:38:56;;;;;;;2.97;1.73;;;11.70;99.00;;;;;;5031964;28;20034;-82
2023/03/29 09:41:33;;;;;;;4.97;1.27;;;11.70;98.70;;;;;;5021309;28;20033;-83
2023/03/29 09:44:06;;;;;;;3.20;1.40;;;11.80;98.20;;;;;;5011975;28;20056;-79
2023/03/29 09:46:49;;;;;;;4.75;1.58;;;11.90;98.20;;;;;;5011060;28;20021;-79
2023/03/29 09:49:20;;;;;;;3.35;1.42;;;11.90;97.80;;;;;;5007898;28;20403;-78
2023/03/29 09:51:48;;;;;;;2.25;1.27;;;12.00;98.30;;;;;;5011139;28;20107;-78
2023/03/29 09:54:14;;;;;;;6.82;1.60;;;12.10;97.40;;;;;;5025640;22;20427;-76
2023/03/29 09:56:39;;;;;;;4.03;1.75;;;12.20;97.30;;;;;;4966857;28;20030;-75
2023/03/29 09:59:06;;;;;;;3.88;1.95;;;12.20;97.20;;;;;;4983549;28;20498;-77
2023/03/29 10:01:37;;;;;;;3.92;1.92;;;12.30;96.80;;;;;;4958262;28;20031;-75
2023/03/29 10:04:06;;;;;;;5.72;1.77;;;12.40;96.60;;;;;;4968718;28;20513;-76
2023/03/29 10:06:33;;;;;;;5.90;2.10;;;12.50;96.60;;;;;;4981416;28;20029;-75
2023/03/29 10:08:59;;;;;;;5.75;2.30;;;12.60;96.30;;;;;;4971694;28;20096;-75
2023/03/29 10:11:31;;;;;;;4.50;2.03;;;12.60;96.00;;;;;;4982652;28;20038;-76
2023/03/29 10:14:11;;;;;;;7.40;2.10;;;12.70;95.80;;;;;;4987752;28;20037;-76
2023/03/29 10:16:40;;;;;;;7.07;2.28;;;12.90;95.60;;;;;;4985336;28;20034;-75
2023/03/29 10:19:22;;;;;;;4.03;1.30;;;13.00;95.40;;;;;;4983194;28;20028;-75
2023/03/29 10:21:51;;;;;;;2.95;1.50;;;13.10;95.30;;;;;;4985018;28;20034;-75
2023/03/29 10:24:24;;;;;;;4.38;1.15;;;13.20;95.00;;;;;;4987546;28;20457;-78
2023/03/29 10:27:06;;;;;;;3.42;1.80;;;13.30;94.50;;;;;;4986441;28;20566;-76
2023/03/29 10:29:42;;;;;;;3.88;1.42;;;13.40;94.40;;;;;;4986484;28;20932;-76
2023/03/29 10:32:28;;;;;;;4.28;1.65;;;13.50;94.20;;;;;;4977106;28;20049;-77
2023/03/29 10:34:58;;;;;;;4.00;1.58;;;13.60;94.80;;;;;;4985935;28;20732;-76
2023/03/29 10:37:24;;;;;;;4.25;1.65;;;13.60;93.50;;;;;;4985639;28;20026;-77
2023/03/29 10:39:50;;;;;;;4.93;1.65;;;13.70;93.00;;;;;;4986642;28;20037;-76
2023/03/29 10:42:18;;;;;;;5.63;2.33;;;13.70;92.60;;;;;;4986665;28;20089;-76
2023/03/29 10:44:53;;;;;;;5.00;1.60;;;13.80;92.60;;;;;;4983851;28;20027;-77
2023/03/29 10:47:20;;;;;;;2.13;1.25;;;13.90;91.90;;;;;;4983579;28;20362;-77
2023/03/29 10:49:51;;;;;;;4.05;1.90;;;14.00;91.80;;;;;;4984820;28;20142;-76
2023/03/29 10:52:16;;;;;;;4.93;1.77;;;14.10;91.70;;;;;;4983688;28;20034;-76
2023/03/29 10:54:43;;;;;;;7.93;1.88;;;14.10;91.50;;;;;;4980523;28;20031;-76
2023/03/29 10:57:15;;;;;;;4.47;1.60;;;14.30;91.40;;;;;;4983365;28;20133;-74
2023/03/29 11:00:15;;;;;;;3.08;1.50;;;14.40;91.00;;;;;;4978310;28;20042;-76
2023/03/29 11:03:04;;;;;;;2.50;1.10;;;14.60;90.60;;;;;;4985723;28;20173;-77
2023/03/29 11:05:51;;;;;;;3.47;1.00;;;14.80;90.30;;;;;;4982196;28;20070;-76
2023/03/29 11:08:35;;;;;;;2.63;1.10;;;14.90;88.20;;;;;;4987516;28;20489;-77
2023/03/29 11:11:11;;;;;;;3.42;1.05;;;15.00;86.20;;;;;;4980859;28;20041;-77
2023/03/29 11:14:04;;;;;;;1.40;0.75;;;15.10;85.90;;;;;;4980728;28;20026;-77
2023/03/29 11:16:49;;;;;;;2.92;1.02;;;15.10;85.50;;;;;;4990064;28;20046;-76
2023/03/29 11:19:18;;;;;;;1.95;1.02;;;15.20;84.60;;;;;;4989156;28;20037;-76
2023/03/29 11:21:58;;;;;;;1.70;0.80;;;15.20;84.30;;;;;;4988527;28;20034;-77
2023/03/29 11:24:54;;;;;;;5.85;1.40;;;15.20;83.20;;;;;;4982964;28;20026;-77
2023/03/29 11:27:37;;;;;;;3.67;1.15;;;15.10;84.00;;;;;;4987443;28;20069;-76
2023/03/29 11:30:09;;;;;;;2.95;1.63;;;15.10;83.80;;;;;;4986111;28;20047;-79
2023/03/29 11:32:50;;;;;;;5.00;2.00;;;15.10;84.00;;;;;;4987555;28;20042;-77
2023/03/29 11:36:04;;;;;;;2.83;1.38;;;15.10;83.20;;;;;;4985962;28;20096;-75
2023/03/29 11:38:53;;;;;;;3.72;1.20;;;15.10;84.00;;;;;;4976251;28;20430;-77
2023/03/29 11:41:27;;;;;;;3.97;2.00;;;15.00;83.30;;;;;;4988866;28;20026;-77
2023/03/29 11:44:01;;;;;;;;;;;15.10;83.90;;;;;;4988626;28;20683;-77
2023/03/29 11:46:40;;;;;;;4.78;1.75;;;15.00;83.70;;;;;;4987770;28;20239;-77
2023/03/29 11:49:09;;;;;;;5.15;1.63;;;15.00;83.30;;;;;;4988588;28;20019;-76
2023/03/29 11:51:47;;;;;;;2.65;1.20;;;15.10;83.50;;;;;;4982240;28;20038;-78
2023/03/29 11:54:52;;;;;;;2.03;0.95;;;15.00;83.00;;;;;;4986369;28;20406;-77
2023/03/29 11:57:41;;;;;;;;;;;15.00;82.70;;;;;;4975356;28;20042;-77
2023/03/29 12:00:18;;;;;;;3.83;1.23;;;15.00;84.10;;;;;;4986469;28;19913;-78
2023/03/29 12:02:59;;;;;;;7.13;1.40;;;15.00;83.20;;;;;;4985497;28;20027;-76
2023/03/29 12:05:42;;;;;;;2.95;0.98;;;15.10;83.50;;;;;;4986422;28;20060;-77
2023/03/29 12:08:11;;;;;;;2.80;1.15;;;15.10;83.00;;;;;;4986977;28;20022;-76
2023/03/29 12:10:48;;;;;;;2.50;1.02;;;15.20;81.80;;;;;;4986776;28;20030;-76
2023/03/29 12:13:23;;;;;;;4.95;1.20;;;15.20;81.20;;;;;;4985413;28;20036;-77
2023/03/29 12:16:15;;;;;;;2.65;1.17;;;15.20;81.30;;;;;;4986345;28;20026;-77
2023/03/29 12:18:50;;;;;;;8.18;6.90;;;15.20;81.00;;;;;;4982224;28;20034;-76
2023/03/29 12:21:25;;;;;;;4.13;1.67;;;15.20;81.10;;;;;;4984865;28;20054;-76
2023/03/29 12:23:51;;;;;;;2.22;1.40;;;15.20;81.40;;;;;;4985792;28;20022;-74
2023/03/29 12:26:39;;;;;;;6.15;1.40;;;15.20;82.70;;;;;;4982560;28;20021;-75
2023/03/29 12:29:14;;;;;;;3.33;1.20;;;15.20;82.10;;;;;;4985774;28;20432;-75
2023/03/29 12:32:07;;;;;;;3.42;1.77;;;15.20;81.90;;;;;;4997434;28;20077;-76
2023/03/29 12:34:57;;;;;;;4.90;1.88;;;15.20;82.20;;;;;;4999596;28;20117;-75
2023/03/29 12:37:35;;;;;;;9.18;4.88;;;15.20;82.50;;;;;;5005837;28;20023;-75
2023/03/29 12:40:18;;;;;;;15.73;1.95;;;15.20;82.50;;;;;;4988939;28;20038;-75
2023/03/29 12:42:52;;;;;;;7.95;5.20;;;15.20;82.80;;;;;;4982714;28;20046;-75
2023/03/29 12:45:27;;;;;;;4.00;2.47;;;15.30;83.40;;;;;;4984666;28;20035;-75
2023/03/29 12:47:55;;;;;;;3.38;1.17;;;15.40;84.20;;;;;;4987365;28;20026;-76
2023/03/29 12:50:51;;;;;;;5.35;1.02;;;15.40;84.00;;;;;;4983314;28;20487;-76
2023/03/29 12:53:23;;;;;;;7.57;4.63;;;15.40;83.50;;;;;;4996955;28;20045;-76
2023/03/29 12:56:07;;;;;;;71.28;40.20;;;15.40;83.60;;;;;;4986166;28;20038;-75
2023/03/29 12:58:39;;;;;;;;;;;15.40;83.40;;;;;;4989297;28;20049;-76
2023/03/29 13:01:10;;;;;;;110.72;58.35;;;15.40;83.00;;;;;;4987756;28;19922;-76
2023/03/29 13:03:38;;;;;;;116.60;49.58;;;15.50;83.60;;;;;;4993088;28;20029;-76
2023/03/29 13:06:08;;;;;;;94.40;41.83;;;15.50;83.20;;;;;;4984356;28;20054;-76
2023/03/29 13:08:36;;;;;;;126.80;57.20;;;15.60;82.30;;;;;;4981602;28;20018;-77
2023/03/29 13:11:02;;;;;;;154.15;69.82;;;15.60;82.30;;;;;;4984241;28;20026;-77
2023/03/29 13:13:36;;;;;;;147.95;65.38;;;15.60;82.50;;;;;;4986618;28;20477;-76
2023/03/29 13:16:13;;;;;;;221.40;90.35;;;15.60;82.40;;;;;;4981699;28;20038;-76